PWSweather.com
Personal Weather Stations
Station Observations
KAZPHOEN90
RayThunderhill, Phoenix, AZ

RayThunderhillPhoenix, AZ

Lat: 33.312, Lon: -112.029

Elevation: 1260

Station Type: Davis Vantage VUE

High Low Average
Temperature 71.5°F21.9°F 43.2°F6.2°F 56.7°F13.7°F
Dew Point 42.8°F6.0°F 38.7°F3.7°F 40.5°F4.7°F
Winds 1.4 mph NNE2.3 mph NNE Calm Calm 0.1 mph 0.2 mph
Wind Gusts 7.0 mph11.3 mph -- 0.4 mph0.6 mph
Humidity 85% 31% 58%
Pressure 30.22 in1023.40 in 30.07 in1018.30 in -
Precipitation 0.00 in0.00 in - -
Hour Temp Dew Point Humidity Winds Wind Gusts Pressure Precip Precip Rate Daily Precip Total
12:00 AM 49.7°F9.8°C 41.4°F5.2°C 73% Calm Calm -- 30.17 in1021.7 mb - 0.00 in0.0 mm 0.00 in0.0 mm
12:15 AM 49.1°F9.5°C 41.5°F5.3°C 75% Calm Calm -- 30.16 in1021.3 mb - 0.00 in0.0 mm 0.00 in0.0 mm
12:30 AM 49.3°F9.6°C 41.4°F5.2°C 74% Calm Calm -- 30.17 in1021.7 mb - 0.00 in0.0 mm 0.00 in0.0 mm
12:45 AM 49.4°F9.7°C 41.5°F5.3°C 74% Calm Calm -- 30.16 in1021.3 mb - 0.00 in0.0 mm 0.00 in0.0 mm
01:00 AM 49.2°F9.6°C 41.3°F5.2°C 74% Calm Calm -- 30.17 in1021.7 mb - 0.00 in0.0 mm 0.00 in0.0 mm
01:15 AM 48.7°F9.3°C 41.2°F5.1°C 75% Calm Calm -- 30.16 in1021.3 mb - 0.00 in0.0 mm 0.00 in0.0 mm
01:30 AM 48.2°F9.0°C 41.0°F5.0°C 76% Calm Calm -- 30.16 in1021.3 mb - 0.00 in0.0 mm 0.00 in0.0 mm
01:45 AM 48.2°F9.0°C 41.0°F5.0°C 76% Calm Calm -- 30.16 in1021.3 mb - 0.00 in0.0 mm 0.00 in0.0 mm
02:00 AM 48.1°F8.9°C 41.2°F5.1°C 77% Calm Calm -- 30.17 in1021.7 mb - 0.00 in0.0 mm 0.00 in0.0 mm
02:15 AM 47.0°F8.3°C 40.5°F4.7°C 78% Calm Calm -- 30.18 in1022.0 mb - 0.00 in0.0 mm 0.00 in0.0 mm
02:30 AM 46.6°F8.1°C 40.8°F4.9°C 80% Calm Calm -- 30.18 in1022.0 mb - 0.00 in0.0 mm 0.00 in0.0 mm
02:45 AM 46.4°F8.0°C 40.2°F4.6°C 79% Calm Calm -- 30.18 in1022.0 mb - 0.00 in0.0 mm 0.00 in0.0 mm
03:00 AM 46.5°F8.1°C 40.7°F4.8°C 80% Calm Calm -- 30.17 in1021.7 mb - 0.00 in0.0 mm 0.00 in0.0 mm
03:15 AM 46.6°F8.1°C 40.8°F4.9°C 80% Calm Calm -- 30.18 in1022.0 mb - 0.00 in0.0 mm 0.00 in0.0 mm
03:30 AM 45.9°F7.7°C 40.4°F4.7°C 81% Calm Calm -- 30.18 in1022.0 mb - 0.00 in0.0 mm 0.00 in0.0 mm
03:45 AM 45.1°F7.3°C 39.9°F4.4°C 82% Calm Calm -- 30.18 in1022.0 mb - 0.00 in0.0 mm 0.00 in0.0 mm
04:00 AM 44.7°F7.1°C 39.6°F4.2°C 82% Calm Calm -- 30.17 in1021.7 mb - 0.00 in0.0 mm 0.00 in0.0 mm
04:15 AM 44.5°F6.9°C 39.7°F4.3°C 83% Calm Calm -- 30.17 in1021.7 mb - 0.00 in0.0 mm 0.00 in0.0 mm
04:30 AM 44.5°F6.9°C 39.7°F4.3°C 83% Calm Calm -- 30.17 in1021.7 mb - 0.00 in0.0 mm 0.00 in0.0 mm
04:45 AM 44.7°F7.1°C 39.9°F4.4°C 83% Calm Calm -- 30.17 in1021.7 mb - 0.00 in0.0 mm 0.00 in0.0 mm
05:00 AM 45.3°F7.4°C 40.2°F4.6°C 82% Calm Calm -- 30.17 in1021.7 mb - 0.00 in0.0 mm 0.00 in0.0 mm
05:15 AM 45.5°F7.5°C 40.0°F4.4°C 81% Calm Calm -- 30.17 in1021.7 mb - 0.00 in0.0 mm 0.00 in0.0 mm
05:30 AM 45.1°F7.3°C 39.9°F4.4°C 82% Calm Calm -- 30.17 in1021.7 mb - 0.00 in0.0 mm 0.00 in0.0 mm
05:45 AM 45.0°F7.2°C 39.8°F4.3°C 82% Calm Calm -- 30.17 in1021.7 mb - 0.00 in0.0 mm 0.00 in0.0 mm
06:00 AM 45.7°F7.6°C 40.2°F4.6°C 81% Calm Calm -- 30.18 in1022.0 mb - 0.00 in0.0 mm 0.00 in0.0 mm
06:15 AM 45.5°F7.5°C 40.0°F4.4°C 81% Calm Calm -- 30.19 in1022.4 mb - 0.00 in0.0 mm 0.00 in0.0 mm
06:30 AM 44.9°F7.2°C 40.0°F4.4°C 83% Calm Calm -- 30.20 in1022.7 mb - 0.00 in0.0 mm 0.00 in0.0 mm
06:45 AM 45.3°F7.4°C 40.1°F4.5°C 82% Calm Calm -- 30.20 in1022.7 mb - 0.00 in0.0 mm 0.00 in0.0 mm
07:00 AM 45.6°F7.6°C 40.4°F4.7°C 82% Calm Calm -- 30.20 in1022.7 mb - 0.00 in0.0 mm 0.00 in0.0 mm
07:15 AM 44.7°F7.1°C 39.5°F4.2°C 82% Calm Calm -- 30.20 in1022.7 mb - 0.00 in0.0 mm 0.00 in0.0 mm
07:30 AM 43.8°F6.6°C 39.3°F4.1°C 84% Calm Calm -- 30.20 in1022.7 mb - 0.00 in0.0 mm 0.00 in0.0 mm
07:45 AM 43.2°F6.2°C 39.0°F3.9°C 85% Calm Calm -- 30.20 in1022.7 mb - 0.00 in0.0 mm 0.00 in0.0 mm
08:00 AM 44.0°F6.7°C 39.8°F4.3°C 85% Calm Calm -- 30.20 in1022.7 mb - 0.00 in0.0 mm 0.00 in0.0 mm
08:15 AM 47.1°F8.4°C 41.9°F5.5°C 82% Calm Calm -- 30.21 in1023.0 mb - 0.00 in0.0 mm 0.00 in0.0 mm
08:30 AM 50.8°F10.4°C 42.8°F6.0°C 74% Calm Calm -- 30.21 in1023.0 mb - 0.00 in0.0 mm 0.00 in0.0 mm
08:45 AM 52.3°F11.3°C 42.8°F6.0°C 70% Calm Calm -- 30.21 in1023.0 mb - 0.00 in0.0 mm 0.00 in0.0 mm
09:00 AM 55.7°F13.2°C 41.1°F5.1°C 58% 1.4 mph NNE2.3 kmh NNE 4.0 mph6.4 kmh 30.21 in1023.0 mb - 0.00 in0.0 mm 0.00 in0.0 mm
09:15 AM 56.4°F13.6°C 41.4°F5.2°C 57% Calm Calm 1.0 mph1.6 kmh 30.22 in1023.4 mb - 0.00 in0.0 mm 0.00 in0.0 mm
09:30 AM 58.4°F14.7°C 41.8°F5.4°C 54% Calm Calm 1.0 mph1.6 kmh 30.22 in1023.4 mb - 0.00 in0.0 mm 0.00 in0.0 mm
09:45 AM 59.7°F15.4°C 41.5°F5.3°C 51% 0.2 mph ESE0.3 kmh ESE 1.0 mph1.6 kmh 30.22 in1023.4 mb - 0.00 in0.0 mm 0.00 in0.0 mm
10:00 AM 61.0°F16.1°C 42.2°F5.7°C 50% 0.7 mph SE1.1 kmh SE 1.0 mph1.6 kmh 30.22 in1023.4 mb - 0.00 in0.0 mm 0.00 in0.0 mm
10:15 AM 61.1°F16.2°C 42.3°F5.7°C 50% 0.1 mph SE0.2 kmh SE 1.0 mph1.6 kmh 30.22 in1023.4 mb - 0.00 in0.0 mm 0.00 in0.0 mm
10:30 AM 62.1°F16.7°C 42.2°F5.7°C 48% Calm Calm -- 30.22 in1023.4 mb - 0.00 in0.0 mm 0.00 in0.0 mm
10:45 AM 63.2°F17.3°C 40.9°F4.9°C 44% 0.6 mph SE1.0 kmh SE 2.0 mph3.2 kmh 30.22 in1023.4 mb - 0.00 in0.0 mm 0.00 in0.0 mm
11:00 AM 63.6°F17.6°C 41.9°F5.5°C 45% Calm Calm -- 30.22 in1023.4 mb - 0.00 in0.0 mm 0.00 in0.0 mm
11:15 AM 64.5°F18.1°C 42.1°F5.6°C 44% Calm Calm 1.0 mph1.6 kmh 30.21 in1023.0 mb - 0.00 in0.0 mm 0.00 in0.0 mm
11:30 AM 66.1°F18.9°C 42.3°F5.7°C 42% Calm Calm -- 30.20 in1022.7 mb - 0.00 in0.0 mm 0.00 in0.0 mm
11:45 AM 65.5°F18.6°C 39.9°F4.4°C 39% 1.2 mph NNE1.9 kmh NNE 4.0 mph6.4 kmh 30.20 in1022.7 mb - 0.00 in0.0 mm 0.00 in0.0 mm
12:00 PM 66.9°F19.4°C 41.1°F5.1°C 39% 0.4 mph N0.6 kmh N 3.0 mph4.8 kmh 30.18 in1022.0 mb - 0.00 in0.0 mm 0.00 in0.0 mm
12:15 PM 67.9°F19.9°C 41.3°F5.2°C 38% 1.2 mph E1.9 kmh E 7.0 mph11.3 kmh 30.18 in1022.0 mb - 0.00 in0.0 mm 0.00 in0.0 mm
12:30 PM 68.1°F20.1°C 40.1°F4.5°C 36% 0.2 mph NNE0.3 kmh NNE 1.0 mph1.6 kmh 30.16 in1021.3 mb - 0.00 in0.0 mm 0.00 in0.0 mm
12:45 PM 68.4°F20.2°C 40.4°F4.7°C 36% 0.1 mph ENE0.2 kmh ENE 1.0 mph1.6 kmh 30.16 in1021.3 mb - 0.00 in0.0 mm 0.00 in0.0 mm
01:00 PM 69.3°F20.7°C 40.5°F4.7°C 35% 0.8 mph SE1.3 kmh SE 1.0 mph1.6 kmh 30.14 in1020.7 mb - 0.00 in0.0 mm 0.00 in0.0 mm
01:15 PM 69.5°F20.8°C 40.6°F4.8°C 35% 0.2 mph E0.3 kmh E 1.0 mph1.6 kmh 30.13 in1020.3 mb - 0.00 in0.0 mm 0.00 in0.0 mm
01:30 PM 70.3°F21.3°C 41.3°F5.2°C 35% 0.5 mph ESE0.8 kmh ESE 1.0 mph1.6 kmh 30.12 in1020.0 mb - 0.00 in0.0 mm 0.00 in0.0 mm
01:45 PM 70.9°F21.6°C 39.5°F4.2°C 32% 0.1 mph E0.2 kmh E 1.0 mph1.6 kmh 30.11 in1019.6 mb - 0.00 in0.0 mm 0.00 in0.0 mm
02:00 PM 71.1°F21.7°C 40.5°F4.7°C 33% Calm Calm 1.0 mph1.6 kmh 30.11 in1019.6 mb - 0.00 in0.0 mm 0.00 in0.0 mm
02:15 PM 71.5°F21.9°C 40.1°F4.5°C 32% 0.1 mph E0.2 kmh E 1.0 mph1.6 kmh 30.10 in1019.3 mb - 0.00 in0.0 mm 0.00 in0.0 mm
02:30 PM 71.2°F21.8°C 39.8°F4.3°C 32% 0.7 mph SE1.1 kmh SE 1.0 mph1.6 kmh 30.09 in1019.0 mb - 0.00 in0.0 mm 0.00 in0.0 mm
02:45 PM 71.5°F21.9°C 40.1°F4.5°C 32% 1.3 mph ESE2.1 kmh ESE 2.0 mph3.2 kmh 30.09 in1019.0 mb - 0.00 in0.0 mm 0.00 in0.0 mm
03:00 PM 71.1°F21.7°C 38.9°F3.8°C 31% 0.1 mph SW0.2 kmh SW -- 30.09 in1019.0 mb - 0.00 in0.0 mm 0.00 in0.0 mm
03:15 PM 70.8°F21.6°C 38.7°F3.7°C 31% 0.1 mph SW0.2 kmh SW 1.0 mph1.6 kmh 30.08 in1018.6 mb - 0.00 in0.0 mm 0.00 in0.0 mm
03:30 PM 70.9°F21.6°C 39.5°F4.2°C 32% Calm Calm 1.0 mph1.6 kmh 30.08 in1018.6 mb - 0.00 in0.0 mm 0.00 in0.0 mm
03:45 PM 70.4°F21.3°C 39.1°F3.9°C 32% Calm Calm -- 30.07 in1018.3 mb - 0.00 in0.0 mm 0.00 in0.0 mm
04:00 PM 70.1°F21.2°C 38.8°F3.8°C 32% Calm Calm -- 30.07 in1018.3 mb - 0.00 in0.0 mm 0.00 in0.0 mm
04:15 PM 69.7°F20.9°C 39.3°F4.1°C 33% Calm Calm -- 30.07 in1018.3 mb - 0.00 in0.0 mm 0.00 in0.0 mm
04:30 PM 68.8°F20.4°C 40.0°F4.4°C 35% Calm Calm -- 30.07 in1018.3 mb - 0.00 in0.0 mm 0.00 in0.0 mm
04:45 PM 68.6°F20.3°C 39.9°F4.4°C 35% Calm Calm -- 30.08 in1018.6 mb - 0.00 in0.0 mm 0.00 in0.0 mm
05:00 PM 67.4°F19.7°C 40.2°F4.6°C 37% Calm Calm -- 30.07 in1018.3 mb - 0.00 in0.0 mm 0.00 in0.0 mm
05:15 PM 66.0°F18.9°C 40.3°F4.6°C 39% Calm Calm -- 30.07 in1018.3 mb - 0.00 in0.0 mm 0.00 in0.0 mm
05:30 PM 64.2°F17.9°C 40.6°F4.8°C 42% Calm Calm -- 30.07 in1018.3 mb - 0.00 in0.0 mm 0.00 in0.0 mm
05:45 PM 62.7°F17.1°C 41.1°F5.1°C 45% Calm Calm -- 30.07 in1018.3 mb - 0.00 in0.0 mm 0.00 in0.0 mm
06:00 PM 61.3°F16.3°C 41.4°F5.2°C 48% Calm Calm -- 30.07 in1018.3 mb - 0.00 in0.0 mm 0.00 in0.0 mm
06:15 PM 60.9°F16.1°C 41.6°F5.3°C 49% Calm Calm -- 30.07 in1018.3 mb - 0.00 in0.0 mm 0.00 in0.0 mm
06:30 PM 59.6°F15.3°C 41.9°F5.5°C 52% Calm Calm -- 30.07 in1018.3 mb - 0.00 in0.0 mm 0.00 in0.0 mm
06:45 PM 59.1°F15.1°C 41.4°F5.2°C 52% Calm Calm -- 30.07 in1018.3 mb - 0.00 in0.0 mm 0.00 in0.0 mm
07:00 PM 58.5°F14.7°C 41.4°F5.2°C 53% Calm Calm -- 30.07 in1018.3 mb - 0.00 in0.0 mm 0.00 in0.0 mm
07:15 PM 58.1°F14.5°C 41.5°F5.3°C 54% Calm Calm -- 30.07 in1018.3 mb - 0.00 in0.0 mm 0.00 in0.0 mm
07:30 PM 57.4°F14.1°C 41.3°F5.2°C 55% Calm Calm -- 30.08 in1018.6 mb - 0.00 in0.0 mm 0.00 in0.0 mm
07:45 PM 57.4°F14.1°C 40.9°F4.9°C 54% Calm Calm -- 30.08 in1018.6 mb - 0.00 in0.0 mm 0.00 in0.0 mm
08:00 PM 57.4°F14.1°C 39.4°F4.1°C 51% Calm Calm -- 30.08 in1018.6 mb - 0.00 in0.0 mm 0.00 in0.0 mm
08:15 PM 59.2°F15.1°C 39.5°F4.2°C 48% Calm Calm -- 30.08 in1018.6 mb - 0.00 in0.0 mm 0.00 in0.0 mm
08:30 PM 61.7°F16.5°C 39.6°F4.2°C 44% Calm Calm 1.0 mph1.6 kmh 30.08 in1018.6 mb - 0.00 in0.0 mm 0.00 in0.0 mm
08:45 PM 59.7°F15.4°C 39.9°F4.4°C 48% Calm Calm -- 30.08 in1018.6 mb - 0.00 in0.0 mm 0.00 in0.0 mm
09:00 PM 58.4°F14.7°C 39.3°F4.1°C 49% Calm Calm -- 30.08 in1018.6 mb - 0.00 in0.0 mm 0.00 in0.0 mm
09:15 PM 57.4°F14.1°C 39.4°F4.1°C 51% Calm Calm -- 30.08 in1018.6 mb - 0.00 in0.0 mm 0.00 in0.0 mm
09:30 PM 56.1°F13.4°C 39.7°F4.3°C 54% Calm Calm -- 30.08 in1018.6 mb - 0.00 in0.0 mm 0.00 in0.0 mm
09:45 PM 55.4°F13.0°C 39.5°F4.2°C 55% Calm Calm -- 30.08 in1018.6 mb - 0.00 in0.0 mm 0.00 in0.0 mm
10:00 PM 55.3°F12.9°C 39.9°F4.4°C 56% Calm Calm -- 30.08 in1018.6 mb - 0.00 in0.0 mm 0.00 in0.0 mm
10:15 PM 54.5°F12.5°C 40.0°F4.4°C 58% Calm Calm -- 30.09 in1019.0 mb - 0.00 in0.0 mm 0.00 in0.0 mm
10:30 PM 54.2°F12.3°C 39.3°F4.1°C 57% Calm Calm -- 30.10 in1019.3 mb - 0.00 in0.0 mm 0.00 in0.0 mm
10:45 PM 54.0°F12.2°C 39.6°F4.2°C 58% Calm Calm -- 30.10 in1019.3 mb - 0.00 in0.0 mm 0.00 in0.0 mm
11:00 PM 53.8°F12.1°C 39.4°F4.1°C 58% Calm Calm -- 30.10 in1019.3 mb - 0.00 in0.0 mm 0.00 in0.0 mm
11:15 PM 53.8°F12.1°C 39.3°F4.1°C 58% Calm Calm -- 30.10 in1019.3 mb - 0.00 in0.0 mm 0.00 in0.0 mm
11:30 PM 54.0°F12.2°C 39.5°F4.2°C 58% Calm Calm -- 30.10 in1019.3 mb - 0.00 in0.0 mm 0.00 in0.0 mm
11:45 PM 52.7°F11.5°C 39.6°F4.2°C 61% Calm Calm -- 30.09 in1019.0 mb - 0.00 in0.0 mm 0.00 in0.0 mm